Time;durP1;ratioP1;P1;durP2;ratioP2;P2;SDS_P1;SDS_P2;PMS_P1;PMS_P2;Temp;Humidity;BMP_temperature;BMP_pressure;BME280_temperature;BME280_humidity;BME280_pressure;Samples;Min_cycle;Max_cycle;Signal;HPM_P1;HPM_P2
2022/08/07 00:00:05;;;;;;;;;;;;;;;28.19;43.05;99628.25;2091071;28;19917;-48
2022/08/07 00:01:06;;;;;;;;;;;;;;;28.19;43.02;99631.03;2092026;28;19951;-46
2022/08/07 00:02:06;;;;;;;;;;;;;;;28.20;43.00;99627.19;2091144;28;20222;-45
2022/08/07 00:03:08;;;;;;;;;;;;;;;28.19;43.09;99621.88;2091780;28;19916;-44
2022/08/07 00:04:08;;;;;;;;;;;;;;;28.19;43.16;99628.25;2087869;28;19920;-45
2022/08/07 00:05:08;;;;;;;;;;;;;;;28.18;43.10;99622.94;2088473;28;19963;-44
2022/08/07 00:06:09;;;;;;;;;;;;;;;28.18;42.86;99622.94;2092316;28;19916;-46
2022/08/07 00:07:09;;;;;;;;;;;;;;;28.18;43.00;99618.25;2091073;28;19919;-46
2022/08/07 00:08:09;;;;;;;;;;;;;;;28.17;43.14;99619.34;2091537;28;19908;-47
2022/08/07 00:09:09;;;;;;;;;;;;;;;28.17;42.99;99622.09;2092553;28;20389;-47
2022/08/07 00:10:10;;;;;;;;;;;;;;;28.16;42.88;99625.94;2091921;28;19908;-45
2022/08/07 00:11:10;;;;;;;;;;;;;;;28.16;43.08;99620.38;2092063;28;20701;-45
2022/08/07 00:12:10;;;;;;;;;;;;;;;28.16;43.02;99620.38;2092860;28;20400;-46
2022/08/07 00:13:11;;;;;;;;;;;;;;;28.16;43.00;99625.09;2090565;28;19920;-46
2022/08/07 00:14:11;;;;;;;;;;;;;;;28.16;42.94;99614.84;2092755;28;19908;-45
2022/08/07 00:15:11;;;;;;;;;;;;;;;28.15;43.04;99615.94;2088172;28;19916;-45
2022/08/07 00:16:12;;;;;;;;;;;;;;;28.17;43.21;99619.34;2088807;28;19991;-45
2022/08/07 00:17:12;;;;;;;;;;;;;;;28.17;43.27;99615.69;2093290;28;19935;-45
2022/08/07 00:18:16;;;;;;;;;;;;;;;28.16;43.23;99614.84;2090082;28;19935;-46
2022/08/07 00:19:17;;;;;;;;;;;;;;;28.15;43.07;99613.16;2090572;28;20268;-44
2022/08/07 00:20:17;;;;;;;;;;;;;;;28.17;43.08;99610.16;2091560;28;19908;-45
2022/08/07 00:21:18;;;;;;;;;;;;;;;28.15;43.13;99613.16;2091375;28;19908;-45
2022/08/07 00:22:18;;;;;;;;;;;;;;;28.16;43.21;99606.53;2091068;28;19947;-44
2022/08/07 00:23:19;;;;;;;;;;;;;;;28.16;43.11;99606.53;2090474;28;19908;-46
2022/08/07 00:24:20;;;;;;;;;;;;;;;28.16;43.16;99601.00;2091836;28;20381;-46
2022/08/07 00:25:20;;;;;;;;;;;;;;;28.16;43.07;99608.47;2091760;28;19931;-44
2022/08/07 00:26:20;;;;;;;;;;;;;;;28.16;43.30;99603.75;2093368;28;19916;-45
2022/08/07 00:27:21;;;;;;;;;;;;;;;28.15;43.22;99604.84;2089048;28;20327;-45
2022/08/07 00:28:21;;;;;;;;;;;;;;;28.17;43.11;99605.47;2093626;28;19916;-44
2022/08/07 00:29:24;;;;;;;;;;;;;;;28.15;43.10;99596.53;2091492;28;19912;-45
2022/08/07 00:30:25;;;;;;;;;;;;;;;28.15;43.01;99604.84;2085067;28;19916;-45
2022/08/07 00:31:26;;;;;;;;;;;;;;;28.15;42.98;99607.63;2090415;28;19968;-45
2022/08/07 00:32:26;;;;;;;;;;;;;;;28.15;42.92;99602.06;2087288;28;20303;-45
2022/08/07 00:33:27;;;;;;;;;;;;;;;28.15;43.10;99604.84;2090985;28;20809;-45
2022/08/07 00:34:28;;;;;;;;;;;;;;;28.14;43.05;99599.50;2085395;28;20340;-45
2022/08/07 00:35:29;;;;;;;;;;;;;;;28.15;43.15;99607.63;2092943;28;19927;-45
2022/08/07 00:36:29;;;;;;;;;;;;;;;28.14;43.11;99600.34;2088415;28;20353;-45
2022/08/07 00:37:30;;;;;;;;;;;;;;;28.15;43.19;99607.63;2090791;28;19931;-46
2022/08/07 00:38:31;;;;;;;;;;;;;;;28.15;43.07;99602.06;2090816;28;19908;-44
2022/08/07 00:39:32;;;;;;;;;;;;;;;28.14;43.10;99600.34;2087149;28;19935;-45
2022/08/07 00:40:33;;;;;;;;;;;;;;;28.14;43.25;99605.91;2087019;28;19964;-45
2022/08/07 00:41:34;;;;;;;;;;;;;;;28.13;43.19;99604.22;2083872;28;19908;-45
2022/08/07 00:42:34;;;;;;;;;;;;;;;28.14;43.02;99608.66;2092081;28;19916;-46
2022/08/07 00:43:35;;;;;;;;;;;;;;;28.13;42.97;99606.97;2092567;28;20631;-47
2022/08/07 00:44:35;;;;;;;;;;;;;;;28.13;42.99;99597.81;2090262;28;19938;-45
2022/08/07 00:45:39;;;;;;;;;;;;;;;28.13;42.81;99606.13;2089680;28;20120;-45
2022/08/07 00:46:40;;;;;;;;;;;;;;;28.12;42.90;99608.03;2084700;28;20318;-47
2022/08/07 00:47:40;;;;;;;;;;;;;;;28.12;42.96;99608.03;2091690;28;19915;-45
2022/08/07 00:48:40;;;;;;;;;;;;;;;28.11;42.90;99599.97;2091078;28;19937;-45
2022/08/07 00:49:41;;;;;;;;;;;;;;;28.10;43.03;99599.13;2085353;28;20206;-44
2022/08/07 00:50:41;;;;;;;;;;;;;;;28.10;42.90;99601.88;2088656;28;20003;-45
2022/08/07 00:51:42;;;;;;;;;;;;;;;28.10;42.92;99604.66;2093374;28;20317;-45
2022/08/07 00:52:43;;;;;;;;;;;;;;;28.10;42.98;99604.66;2090944;28;19923;-46
2022/08/07 00:53:43;;;;;;;;;;;;;;;28.10;42.77;99604.66;2090676;28;19912;-45
2022/08/07 00:54:43;;;;;;;;;;;;;;;28.10;42.82;99607.44;2085960;28;19975;-46
2022/08/07 00:55:43;;;;;;;;;;;;;;;28.10;42.75;99606.56;2088969;28;19916;-45
2022/08/07 00:56:44;;;;;;;;;;;;;;;28.09;42.80;99611.25;2085352;28;19908;-46
2022/08/07 00:57:44;;;;;;;;;;;;;;;28.10;42.79;99598.25;2087837;28;20116;-46
2022/08/07 00:58:45;;;;;;;;;;;;;;;28.09;42.93;99602.94;2088042;28;19909;-45
2022/08/07 00:59:45;;;;;;;;;;;;;;;28.10;42.96;99609.31;2086374;28;19927;-46
2022/08/07 01:00:45;;;;;;;;;;;;;;;28.08;42.87;99606.81;2091168;28;20915;-45
2022/08/07 01:01:47;;;;;;;;;;;;;;;28.10;42.73;99603.78;2091558;28;19904;-44
2022/08/07 01:02:48;;;;;;;;;;;;;;;28.10;42.71;99601.88;2091268;28;20400;-45
2022/08/07 01:03:50;;;;;;;;;;;;;;;28.09;42.82;99600.16;2091758;28;19916;-45
2022/08/07 01:04:50;;;;;;;;;;;;;;;28.09;42.91;99597.41;2091146;28;19939;-45
2022/08/07 01:05:53;;;;;;;;;;;;;;;28.10;43.14;99598.25;2090528;28;20072;-45
2022/08/07 01:06:54;;;;;;;;;;;;;;;28.10;43.04;99604.66;2092538;28;19923;-44
2022/08/07 01:07:55;;;;;;;;;;;;;;;28.10;43.10;99604.66;2088248;28;19916;-45
2022/08/07 01:08:56;;;;;;;;;;;;;;;28.10;42.96;99604.66;2090819;28;20324;-44
2022/08/07 01:09:56;;;;;;;;;;;;;;;28.10;42.86;99603.78;2089897;28;19920;-46
2022/08/07 01:10:57;;;;;;;;;;;;;;;28.10;43.03;99610.19;2090139;28;19946;-44
2022/08/07 01:11:57;;;;;;;;;;;;;;;28.10;43.01;99601.88;2088149;28;20272;-45
2022/08/07 01:12:58;;;;;;;;;;;;;;;28.10;43.06;99612.97;2087612;28;20707;-46
2022/08/07 01:13:59;;;;;;;;;;;;;;;28.10;42.94;99610.19;2085277;28;20009;-46
2022/08/07 01:15:00;;;;;;;;;;;;;;;28.10;43.06;99604.66;2089379;28;19908;-46
2022/08/07 01:16:01;;;;;;;;;;;;;;;28.10;43.22;99609.31;2090377;28;19920;-46
2022/08/07 01:17:01;;;;;;;;;;;;;;;28.10;43.06;99612.09;2092766;28;19927;-45
2022/08/07 01:18:02;;;;;;;;;;;;;;;28.10;43.17;99609.31;2089142;28;19943;-45
2022/08/07 01:19:03;;;;;;;;;;;;;;;28.09;42.99;99608.50;2086029;28;19916;-45
2022/08/07 01:20:07;;;;;;;;;;;;;;;28.10;43.05;99612.09;2093511;28;19912;-46
2022/08/07 01:21:14;;;;;;;;;;;;;;;28.09;43.20;99614.03;2090027;28;20089;-45
2022/08/07 01:22:15;;;;;;;;;;;;;;;28.09;43.00;99614.03;2085364;28;19920;-46
2022/08/07 01:23:16;;;;;;;;;;;;;;;28.09;43.12;99608.50;2090873;28;19958;-46
2022/08/07 01:24:17;;;;;;;;;;;;;;;28.09;43.02;99608.50;2091450;28;19916;-45
2022/08/07 01:25:17;;;;;;;;;;;;;;;28.09;43.23;99608.50;2092226;28;20195;-44
2022/08/07 01:26:21;;;;;;;;;;;;;;;28.09;43.13;99613.19;2088717;28;19921;-44
2022/08/07 01:27:21;;;;;;;;;;;;;;;28.07;43.22;99604.25;2091921;28;20641;-45
2022/08/07 01:28:22;;;;;;;;;;;;;;;28.07;43.22;99605.06;2089832;28;20255;-44
2022/08/07 01:29:24;;;;;;;;;;;;;;;28.07;43.06;99602.31;2089563;28;20222;-45
2022/08/07 01:30:24;;;;;;;;;;;;;;;28.07;43.17;99605.06;2090435;28;20352;-46
2022/08/07 01:31:30;;;;;;;;;;;;;;;28.06;43.15;99608.94;2092213;28;19920;-47
2022/08/07 01:32:31;;;;;;;;;;;;;;;28.06;43.07;99606.16;2085987;28;19916;-44
2022/08/07 01:33:32;;;;;;;;;;;;;;;28.06;43.15;99606.16;2090531;28;19939;-45
2022/08/07 01:34:32;;;;;;;;;;;;;;;28.05;43.20;99592.53;2092709;28;19916;-46
2022/08/07 01:35:33;;;;;;;;;;;;;;;28.06;43.09;99600.63;2095161;28;20308;-45
2022/08/07 01:36:33;;;;;;;;;;;;;;;28.05;43.10;99600.84;2091610;28;19912;-47
2022/08/07 01:37:34;;;;;;;;;;;;;;;28.06;43.15;99599.78;2094224;28;20290;-45
2022/08/07 01:38:35;;;;;;;;;;;;;;;28.06;43.30;99600.63;2095533;28;19916;-45
2022/08/07 01:39:35;;;;;;;;;;;;;;;28.05;43.14;99595.28;2089738;28;19923;-48
2022/08/07 01:40:37;;;;;;;;;;;;;;;28.05;43.25;99601.72;2094485;28;20027;-46
2022/08/07 01:41:38;;;;;;;;;;;;;;;28.05;43.35;99601.72;2091576;28;19943;-48
2022/08/07 01:42:38;;;;;;;;;;;;;;;28.06;43.36;99599.78;2091099;28;19916;-47
2022/08/07 01:43:39;;;;;;;;;;;;;;;28.05;43.28;99601.72;2095083;28;19920;-46
2022/08/07 01:44:40;;;;;;;;;;;;;;;28.04;43.26;99602.75;2092413;28;20647;-46
2022/08/07 01:45:41;;;;;;;;;;;;;;;28.04;43.45;99600.00;2094425;28;19923;-45
2022/08/07 01:46:41;;;;;;;;;;;;;;;28.05;43.36;99604.47;2093885;28;20380;-46
2022/08/07 01:47:42;;;;;;;;;;;;;;;28.04;43.29;99605.53;2093241;28;19916;-45
2022/08/07 01:48:43;;;;;;;;;;;;;;;28.05;43.32;99601.72;2093791;28;19924;-45
2022/08/07 01:49:44;;;;;;;;;;;;;;;28.04;43.21;99600.00;2091163;28;20296;-44
2022/08/07 01:51:01;;;;;;;;;;;;;;;28.04;43.18;99596.38;2094598;28;19959;-45
2022/08/07 01:52:02;;;;;;;;;;;;;;;28.04;43.11;99594.44;2092622;28;19912;-45
2022/08/07 01:53:04;;;;;;;;;;;;;;;28.04;43.18;99593.59;2091705;28;20903;-48
2022/08/07 01:54:06;;;;;;;;;;;;;;;28.04;43.14;99599.16;2094659;28;20731;-46
2022/08/07 01:55:09;;;;;;;;;;;;;;;28.03;43.15;99592.75;2092372;28;19944;-44
2022/08/07 01:56:12;;;;;;;;;;;;;;;28.04;43.02;99600.00;2093249;28;20436;-42
2022/08/07 01:57:14;;;;;;;;;;;;;;;28.02;43.02;99591.03;2093599;28;19939;-43
2022/08/07 01:58:17;;;;;;;;;;;;;;;28.03;43.18;99592.75;2091525;28;19916;-43
2022/08/07 01:59:22;;;;;;;;;;;;;;;28.02;43.00;99593.81;2094217;28;19915;-43
2022/08/07 02:00:25;;;;;;;;;;;;;;;28.02;43.20;99593.81;2089140;28;19927;-45
2022/08/07 02:01:27;;;;;;;;;;;;;;;28.03;43.17;99591.88;2088176;28;20338;-45
2022/08/07 02:02:51;;;;;;;;;;;;;;;28.03;42.98;99595.53;2092377;28;19912;-44
2022/08/07 02:03:56;;;;;;;;;;;;;;;28.02;43.18;99591.03;2093214;28;20223;-44
2022/08/07 02:05:01;;;;;;;;;;;;;;;28.02;43.03;99591.03;2091211;28;19979;-46
2022/08/07 02:06:04;;;;;;;;;;;;;;;28.03;42.79;99594.66;2092549;28;19934;-45
2022/08/07 02:07:06;;;;;;;;;;;;;;;28.03;43.02;99598.31;2093054;28;20364;-44
2022/08/07 02:08:11;;;;;;;;;;;;;;;28.03;42.98;99592.75;2091295;28;19927;-43
2022/08/07 02:09:14;;;;;;;;;;;;;;;28.02;43.08;99588.28;2096019;28;19916;-45
2022/08/07 02:10:17;;;;;;;;;;;;;;;28.03;43.24;99591.88;2094414;28;20004;-44
2022/08/07 02:11:17;;;;;;;;;;;;;;;28.01;43.16;99583.81;2093666;28;19905;-43
2022/08/07 02:12:19;;;;;;;;;;;;;;;28.01;42.96;99586.59;2091681;28;20171;-43
2022/08/07 02:13:21;;;;;;;;;;;;;;;28.01;43.08;99592.13;2093350;28;20003;-43
2022/08/07 02:14:23;;;;;;;;;;;;;;;28.01;43.12;99589.34;2090536;28;19963;-43
2022/08/07 02:15:25;;;;;;;;;;;;;;;28.01;43.04;99589.34;2094644;28;19942;-44
2022/08/07 02:16:26;;;;;;;;;;;;;;;28.01;43.20;99583.81;2092384;28;20022;-44
2022/08/07 02:17:26;;;;;;;;;;;;;;;27.99;43.16;99586.78;2092783;28;20405;-43
2022/08/07 02:18:28;;;;;;;;;;;;;;;28.00;43.32;99590.41;2095383;28;19927;-47
2022/08/07 02:19:29;;;;;;;;;;;;;;;28.00;43.35;99588.53;2091459;28;19916;-44
2022/08/07 02:20:31;;;;;;;;;;;;;;;27.99;43.21;99591.50;2094651;28;20007;-44
2022/08/07 02:21:34;;;;;;;;;;;;;;;27.99;43.19;99589.56;2091937;28;19909;-44
2022/08/07 02:22:39;;;;;;;;;;;;;;;27.99;43.39;99594.25;2082583;28;19993;-44
2022/08/07 02:23:39;;;;;;;;;;;;;;;27.99;43.29;99586.78;2086856;28;19908;-45
2022/08/07 02:24:41;;;;;;;;;;;;;;;27.98;43.12;99593.41;2092464;28;20403;-44
2022/08/07 02:25:42;;;;;;;;;;;;;;;27.98;43.34;99589.81;2090912;28;20291;-45
2022/08/07 02:26:42;;;;;;;;;;;;;;;27.98;43.30;99584.28;2093825;28;19923;-45
2022/08/07 02:27:43;;;;;;;;;;;;;;;27.99;43.45;99583.19;2090484;28;19916;-47
2022/08/07 02:28:44;;;;;;;;;;;;;;;27.98;43.32;99590.66;2094463;28;20290;-45
2022/08/07 02:29:44;;;;;;;;;;;;;;;27.98;43.43;99581.50;2092460;28;19963;-45
2022/08/07 02:30:47;;;;;;;;;;;;;;;27.98;43.33;99587.03;2092521;28;20033;-45
2022/08/07 02:31:48;;;;;;;;;;;;;;;27.98;43.40;99582.34;2095656;28;19923;-44
2022/08/07 02:32:49;;;;;;;;;;;;;;;27.98;43.20;99589.81;2092543;28;19920;-44
2022/08/07 02:33:52;;;;;;;;;;;;;;;27.99;43.47;99591.50;2092750;28;20564;-43
2022/08/07 02:34:53;;;;;;;;;;;;;;;27.98;43.27;99589.81;2093253;28;19924;-51
2022/08/07 02:35:55;;;;;;;;;;;;;;;27.98;43.29;99593.41;2093261;28;20014;-44
2022/08/07 02:36:56;;;;;;;;;;;;;;;27.99;43.19;99588.72;2090499;28;19908;-44
2022/08/07 02:37:57;;;;;;;;;;;;;;;27.98;43.21;99589.81;2092826;28;20401;-45
2022/08/07 02:38:59;;;;;;;;;;;;;;;27.98;43.12;99589.81;2092839;28;19924;-44
2022/08/07 02:40:00;;;;;;;;;;;;;;;27.98;43.34;99584.28;2094487;28;19923;-48
2022/08/07 02:41:01;;;;;;;;;;;;;;;27.97;43.35;99583.41;2085825;28;19924;-45
2022/08/07 02:42:02;;;;;;;;;;;;;;;27.98;43.19;99587.03;2090932;28;20249;-44
2022/08/07 02:43:04;;;;;;;;;;;;;;;27.97;43.07;99596.41;2094293;28;19916;-44
2022/08/07 02:44:04;;;;;;;;;;;;;;;27.96;43.14;99590.03;2091605;28;19937;-46
2022/08/07 02:45:07;;;;;;;;;;;;;;;27.97;43.28;99599.16;2091703;28;19928;-44
2022/08/07 02:46:08;;;;;;;;;;;;;;;27.97;43.11;99599.16;2091733;28;19991;-44
2022/08/07 02:47:10;;;;;;;;;;;;;;;27.97;43.22;99593.63;2090374;28;20133;-44
2022/08/07 02:48:11;;;;;;;;;;;;;;;27.97;43.17;99596.41;2093562;28;20579;-44
2022/08/07 02:49:11;;;;;;;;;;;;;;;27.97;43.15;99601.94;2092185;28;20196;-47
2022/08/07 02:50:13;;;;;;;;;;;;;;;27.96;43.22;99594.72;2093125;28;19920;-45
2022/08/07 02:51:15;;;;;;;;;;;;;;;27.96;43.15;99597.47;2095075;28;20319;-44
2022/08/07 02:52:18;;;;;;;;;;;;;;;27.96;43.37;99603.03;2091748;28;19916;-43
2022/08/07 02:53:23;;;;;;;;;;;;;;;27.95;43.11;99599.41;2092500;28;19923;-45
2022/08/07 02:54:26;;;;;;;;;;;;;;;27.95;43.19;99602.19;2092730;28;19962;-44
2022/08/07 02:55:28;;;;;;;;;;;;;;;27.94;43.29;99600.47;2091215;28;19965;-45
2022/08/07 02:56:31;;;;;;;;;;;;;;;27.94;43.23;99596.84;2092894;28;19916;-46
2022/08/07 02:57:33;;;;;;;;;;;;;;;27.92;43.28;99596.22;2092690;28;19919;-45
2022/08/07 02:58:35;;;;;;;;;;;;;;;27.92;43.04;99597.06;2089382;28;20162;-44
2022/08/07 02:59:35;;;;;;;;;;;;;;;27.92;43.30;99596.22;2090801;28;20738;-44
2022/08/07 03:00:37;;;;;;;;;;;;;;;27.91;43.22;99594.53;2091527;28;20006;-44
2022/08/07 03:01:38;;;;;;;;;;;;;;;27.91;43.28;99594.53;2093341;28;19972;-46
2022/08/07 03:02:40;;;;;;;;;;;;;;;27.91;43.21;99592.59;2090623;28;19931;-45
2022/08/07 03:03:41;;;;;;;;;;;;;;;27.91;43.07;99594.53;2089162;28;19908;-44
2022/08/07 03:04:43;;;;;;;;;;;;;;;27.91;43.28;99595.38;2091297;28;19923;-45
2022/08/07 03:05:44;;;;;;;;;;;;;;;27.91;43.26;99594.53;2089461;28;19975;-44
2022/08/07 03:06:46;;;;;;;;;;;;;;;27.90;43.18;99592.81;2090132;28;20016;-44
2022/08/07 03:07:47;;;;;;;;;;;;;;;27.90;43.23;99599.19;2088496;28;19904;-45
2022/08/07 03:08:48;;;;;;;;;;;;;;;27.91;43.32;99594.53;2087818;28;19920;-44
2022/08/07 03:09:49;;;;;;;;;;;;;;;27.91;43.22;99594.53;2086713;28;19938;-44
2022/08/07 03:10:49;;;;;;;;;;;;;;;27.91;43.37;99597.31;2089491;28;20229;-43
2022/08/07 03:11:50;;;;;;;;;;;;;;;27.92;43.04;99596.22;2087529;28;19974;-44
2022/08/07 03:12:51;;;;;;;;;;;;;;;27.92;43.11;99590.69;2092786;28;20335;-44
2022/08/07 03:13:52;;;;;;;;;;;;;;;27.91;43.17;99595.38;2087891;28;19912;-45
2022/08/07 03:14:55;;;;;;;;;;;;;;;27.91;43.25;99594.53;2089203;28;19904;-46
2022/08/07 03:15:55;;;;;;;;;;;;;;;27.92;43.24;99587.91;2085966;28;19908;-45
2022/08/07 03:16:56;;;;;;;;;;;;;;;27.92;43.30;99596.22;2088651;28;20034;-45
2022/08/07 03:17:57;;;;;;;;;;;;;;;27.92;43.22;99593.44;2092362;28;20225;-44
2022/08/07 03:18:58;;;;;;;;;;;;;;;27.91;43.22;99591.75;2089884;28;20333;-44
2022/08/07 03:19:59;;;;;;;;;;;;;;;27.91;43.39;99595.38;2094272;28;19920;-44
2022/08/07 03:21:00;;;;;;;;;;;;;;;27.92;43.18;99590.69;2088694;28;19916;-44
2022/08/07 03:22:01;;;;;;;;;;;;;;;27.92;43.31;99590.69;2089432;28;19916;-45
2022/08/07 03:23:02;;;;;;;;;;;;;;;27.91;43.37;99594.53;2086730;28;20409;-45
2022/08/07 03:24:03;;;;;;;;;;;;;;;27.91;43.22;99586.22;2092435;28;19924;-44
2022/08/07 03:25:03;;;;;;;;;;;;;;;27.91;43.19;99595.38;2091030;28;19987;-44
2022/08/07 03:26:04;;;;;;;;;;;;;;;27.92;43.21;99590.69;2088621;28;20200;-44
2022/08/07 03:27:06;;;;;;;;;;;;;;;27.91;43.43;99591.75;2090320;28;20378;-46
2022/08/07 03:28:08;;;;;;;;;;;;;;;27.91;43.40;99600.06;2090927;28;19912;-47
2022/08/07 03:29:10;;;;;;;;;;;;;;;27.90;43.19;99592.81;2092376;28;19974;-44
2022/08/07 03:30:11;;;;;;;;;;;;;;;27.90;43.29;99599.19;2087640;28;19920;-48
2022/08/07 03:31:18;;;;;;;;;;;;;;;27.90;43.27;99598.34;2093805;28;19916;-45
2022/08/07 03:32:21;;;;;;;;;;;;;;;27.90;43.31;99598.34;2091598;28;20302;-44
2022/08/07 03:33:21;;;;;;;;;;;;;;;27.90;43.22;99604.72;2093837;28;19916;-44
2022/08/07 03:34:22;;;;;;;;;;;;;;;27.90;43.20;99598.34;2084394;28;20219;-44
2022/08/07 03:35:24;;;;;;;;;;;;;;;27.91;43.51;99605.59;2085918;28;19926;-44
2022/08/07 03:36:25;;;;;;;;;;;;;;;27.90;43.22;99599.19;2094929;28;19962;-44
2022/08/07 03:37:26;;;;;;;;;;;;;;;27.90;43.48;99595.59;2092297;28;19912;-44
2022/08/07 03:38:27;;;;;;;;;;;;;;;27.89;43.46;99597.50;2093979;28;19912;-45
2022/08/07 03:39:28;;;;;;;;;;;;;;;27.89;43.30;99600.28;2092243;28;20227;-45
2022/08/07 03:40:29;;;;;;;;;;;;;;;27.89;43.38;99602.19;2089869;28;19949;-45
2022/08/07 03:41:30;;;;;;;;;;;;;;;27.89;43.37;99602.19;2093927;28;20351;-44
2022/08/07 03:42:32;;;;;;;;;;;;;;;27.88;43.31;99612.44;2091263;28;20813;-45
2022/08/07 03:43:33;;;;;;;;;;;;;;;27.87;43.50;99612.66;2096112;28;20335;-44
2022/08/07 03:44:35;;;;;;;;;;;;;;;27.86;43.39;99608.19;2093073;28;19924;-44
2022/08/07 03:45:35;;;;;;;;;;;;;;;27.86;43.38;99608.19;2092728;28;19921;-44
2022/08/07 03:46:36;;;;;;;;;;;;;;;27.84;43.49;99611.16;2096001;28;20314;-44
2022/08/07 03:47:37;;;;;;;;;;;;;;;27.84;43.44;99611.16;2087160;28;19960;-44
2022/08/07 03:48:38;;;;;;;;;;;;;;;27.84;43.43;99613.09;2093226;28;20336;-45
2022/08/07 03:49:38;;;;;;;;;;;;;;;27.84;43.43;99604.78;2084923;28;19920;-48
2022/08/07 03:50:39;;;;;;;;;;;;;;;27.83;43.29;99608.59;2090941;28;20563;-44
2022/08/07 03:51:40;;;;;;;;;;;;;;;27.82;43.67;99607.75;2090960;28;19923;-44
2022/08/07 03:52:41;;;;;;;;;;;;;;;27.82;43.45;99607.75;2093529;28;20372;-46
2022/08/07 03:53:41;;;;;;;;;;;;;;;27.83;43.31;99605.84;2088926;28;20400;-44
2022/08/07 03:54:41;;;;;;;;;;;;;;;27.83;43.50;99614.16;2098264;28;19923;-44
2022/08/07 03:55:42;;;;;;;;;;;;;;;27.83;43.31;99615.03;2091807;28;19923;-44
2022/08/07 03:56:43;;;;;;;;;;;;;;;27.83;43.39;99605.84;2091420;28;19916;-44
2022/08/07 03:57:44;;;;;;;;;;;;;;;27.83;43.48;99614.16;2090138;28;19920;-45
2022/08/07 03:58:45;;;;;;;;;;;;;;;27.84;43.68;99615.88;2089025;28;20579;-46
2022/08/07 03:59:45;;;;;;;;;;;;;;;27.84;43.61;99615.88;2088542;28;20353;-44
2022/08/07 04:00:47;;;;;;;;;;;;;;;27.84;43.63;99615.88;2086138;28;19920;-44
2022/08/07 04:01:48;;;;;;;;;;;;;;;27.83;43.57;99609.47;2088676;28;20342;-44
2022/08/07 04:02:48;;;;;;;;;;;;;;;27.84;43.59;99615.88;2092754;28;19920;-45
2022/08/07 04:03:49;;;;;;;;;;;;;;;27.84;43.56;99613.09;2089749;28;19921;-45
2022/08/07 04:04:49;;;;;;;;;;;;;;;27.84;43.58;99618.63;2089975;28;20312;-45
2022/08/07 04:05:50;;;;;;;;;;;;;;;27.85;43.56;99617.56;2088540;28;19920;-44
2022/08/07 04:06:51;;;;;;;;;;;;;;;27.84;43.58;99610.31;2091669;28;20401;-46
2022/08/07 04:07:51;;;;;;;;;;;;;;;27.84;43.72;99616.72;2090218;28;20390;-45
2022/08/07 04:08:52;;;;;;;;;;;;;;;27.84;43.57;99604.78;2089366;28;19947;-44
2022/08/07 04:09:53;;;;;;;;;;;;;;;27.84;43.41;99621.41;2090455;28;20303;-46
2022/08/07 04:10:55;;;;;;;;;;;;;;;27.83;43.42;99617.78;2090231;28;20411;-45
2022/08/07 04:11:56;;;;;;;;;;;;;;;27.83;43.42;99619.69;2092355;28;20017;-45
2022/08/07 04:12:56;;;;;;;;;;;;;;;27.83;43.44;99619.69;2092827;28;19960;-44
2022/08/07 04:13:58;;;;;;;;;;;;;;;27.83;43.60;99616.91;2094546;28;20086;-45
2022/08/07 04:14:59;;;;;;;;;;;;;;;27.83;43.45;99619.69;2094943;28;19920;-45
2022/08/07 04:16:00;;;;;;;;;;;;;;;27.83;43.43;99625.22;2091932;28;20491;-45
2022/08/07 04:17:00;;;;;;;;;;;;;;;27.82;43.42;99623.50;2089917;28;20680;-44
2022/08/07 04:18:01;;;;;;;;;;;;;;;27.82;43.74;99623.50;2090802;28;19916;-44
2022/08/07 04:19:02;;;;;;;;;;;;;;;27.82;43.48;99626.28;2094199;28;19922;-44
2022/08/07 04:20:03;;;;;;;;;;;;;;;27.79;43.71;99625.63;2091781;28;19920;-44
2022/08/07 04:21:03;;;;;;;;;;;;;;;27.80;43.59;99620.94;2090391;28;19912;-45
2022/08/07 04:22:04;;;;;;;;;;;;;;;27.80;43.68;99627.31;2091189;28;19920;-44
2022/08/07 04:23:05;;;;;;;;;;;;;;;27.79;43.64;99620.09;2088778;28;19920;-44
2022/08/07 04:24:09;;;;;;;;;;;;;;;27.79;43.43;99631.16;2091041;28;20258;-43
2022/08/07 04:25:10;;;;;;;;;;;;;;;27.80;43.50;99630.09;2094302;28;20369;-45
2022/08/07 04:26:10;;;;;;;;;;;;;;;27.78;43.43;99629.50;2091837;28;20140;-44
2022/08/07 04:27:10;;;;;;;;;;;;;;;27.79;43.47;99630.31;2094482;28;20615;-44
2022/08/07 04:28:11;;;;;;;;;;;;;;;27.79;43.32;99631.16;2088962;28;20270;-44
2022/08/07 04:29:11;;;;;;;;;;;;;;;27.79;43.43;99630.31;2090486;28;20796;-44
2022/08/07 04:30:12;;;;;;;;;;;;;;;27.78;43.34;99626.72;2092227;28;20292;-44
2022/08/07 04:31:12;;;;;;;;;;;;;;;27.78;43.53;99623.94;2093138;28;19916;-45
2022/08/07 04:32:12;;;;;;;;;;;;;;;27.77;43.40;99627.75;2094475;28;20474;-44
2022/08/07 04:33:13;;;;;;;;;;;;;;;27.78;43.40;99626.72;2091131;28;20097;-44
2022/08/07 04:34:14;;;;;;;;;;;;;;;27.78;43.66;99623.94;2089181;28;20024;-44
2022/08/07 04:35:14;;;;;;;;;;;;;;;27.78;43.62;99623.94;2092676;28;20269;-44
2022/08/07 04:36:14;;;;;;;;;;;;;;;27.77;43.53;99627.75;2089612;28;20161;-44
2022/08/07 04:37:15;;;;;;;;;;;;;;;27.78;43.67;99629.50;2091891;28;20287;-43
2022/08/07 04:38:16;;;;;;;;;;;;;;;27.77;43.53;99630.53;2098534;28;19908;-44
2022/08/07 04:39:17;;;;;;;;;;;;;;;27.77;43.60;99627.75;2089318;28;20770;-46
2022/08/07 04:40:17;;;;;;;;;;;;;;;27.78;43.48;99635.03;2092407;28;19915;-45
2022/08/07 04:41:17;;;;;;;;;;;;;;;27.78;43.48;99623.94;2090455;28;20482;-45
2022/08/07 04:42:18;;;;;;;;;;;;;;;27.78;43.54;99632.25;2094167;28;20295;-45
2022/08/07 04:43:20;;;;;;;;;;;;;;;27.77;43.65;99633.31;2094202;28;19927;-44
2022/08/07 04:44:20;;;;;;;;;;;;;;;27.76;43.67;99639.94;2091780;28;20590;-43
2022/08/07 04:45:20;;;;;;;;;;;;;;;27.78;43.66;99635.03;2088004;28;20083;-44
2022/08/07 04:46:21;;;;;;;;;;;;;;;27.78;43.63;99629.50;2094309;28;19981;-45
2022/08/07 04:47:56;;;;;;;;;;;;;;;27.77;43.50;99638.84;2092914;28;19919;-44
2022/08/07 04:49:02;;;;;;;;;;;;;;;27.78;43.61;99636.91;2063389;28;20031;-43
2022/08/07 04:50:09;;;;;;;;;;;;;;;27.78;43.62;99636.91;2066338;28;20287;-43
2022/08/07 04:51:28;;;;;;;;;;;;;;;27.77;43.61;99633.31;2069688;28;19927;-44
2022/08/07 04:52:44;;;;;;;;;;;;;;;27.77;43.53;99636.06;2086243;28;20365;-43
2022/08/07 04:54:03;;;;;;;;;;;;;;;27.77;43.62;99630.53;2090700;28;20039;-44
2022/08/07 04:55:04;;;;;;;;;;;;;;;27.77;43.59;99638.84;2090597;28;19916;-46
2022/08/07 04:56:14;;;;;;;;;;;;;;;27.76;43.74;99628.84;2091599;28;20309;-45
2022/08/07 04:57:14;;;;;;;;;;;;;;;27.76;43.56;99631.63;2088720;28;20306;-44
2022/08/07 04:58:33;;;;;;;;;;;;;;;27.76;43.70;99637.16;2093315;28;20233;-44
2022/08/07 04:59:35;;;;;;;;;;;;;;;27.75;43.60;99635.44;2093089;28;20136;-45
2022/08/07 05:00:39;;;;;;;;;;;;;;;27.75;43.66;99640.97;2090358;28;19920;-44
2022/08/07 05:01:43;;;;;;;;;;;;;;;27.74;43.66;99636.53;2085330;28;19916;-44
2022/08/07 05:02:43;;;;;;;;;;;;;;;27.75;43.71;99643.75;2094146;28;19964;-44
2022/08/07 05:03:47;;;;;;;;;;;;;;;27.74;43.75;99642.06;2091337;28;19916;-45
2022/08/07 05:05:02;;;;;;;;;;;;;;;27.74;43.72;99647.59;2092960;28;19973;-45
2022/08/07 05:06:08;;;;;;;;;;;;;;;27.74;43.65;99652.28;2090455;28;20605;-45
2022/08/07 05:07:19;;;;;;;;;;;;;;;27.74;43.57;99653.13;2089652;28;19957;-45
2022/08/07 05:08:26;;;;;;;;;;;;;;;27.73;43.49;99654.22;2088374;28;19916;-48
2022/08/07 05:09:39;;;;;;;;;;;;;;;27.73;43.49;99654.22;2093953;28;19991;-45
2022/08/07 05:10:46;;;;;;;;;;;;;;;27.72;43.58;99660.81;2091485;28;19923;-44
2022/08/07 05:11:48;;;;;;;;;;;;;;;27.72;43.69;99660.81;2088666;28;19938;-44
2022/08/07 05:12:58;;;;;;;;;;;;;;;27.72;43.48;99657.19;2096022;28;19993;-45
2022/08/07 05:14:03;;;;;;;;;;;;;;;27.71;43.57;99667.44;2092038;28;20003;-44
2022/08/07 05:15:17;;;;;;;;;;;;;;;27.71;43.66;99661.88;2088202;28;19943;-45
2022/08/07 05:16:19;;;;;;;;;;;;;;;27.71;43.64;99667.44;2085736;28;20015;-44
2022/08/07 05:17:21;;;;;;;;;;;;;;;27.71;43.70;99666.56;2093183;28;20311;-52
2022/08/07 05:18:25;;;;;;;;;;;;;;;27.71;43.54;99672.13;2086782;28;19916;-45
2022/08/07 05:19:28;;;;;;;;;;;;;;;27.70;43.73;99668.47;2089873;28;20593;-44
2022/08/07 05:20:33;;;;;;;;;;;;;;;27.69;43.77;99675.09;2093020;28;19923;-44
2022/08/07 05:21:34;;;;;;;;;;;;;;;27.70;43.83;99671.25;2092765;28;19931;-45
2022/08/07 05:22:36;;;;;;;;;;;;;;;27.69;43.75;99680.63;2091123;28;20383;-44